Main page
METAR-TAF:

METAR-TAF

Airports :

Santa Cruz Air Force Base

Santa Cruz, Rio de Janeiro, Brazil

latitude: 22-56S, longitude: 043-43W, elevation: 3 m

Current weather observation

The report was made 1 hour and 10 minutes ago, at 19:00 UTC
Wind 10 kt from the South
Temperature 30°C
Humidity 62%
Pressure 1014 hPa
Visibility 10 km or more
Scattered clouds at a height of 3000 ft
Few clouds at a height of 3100 ft, Towering cumulus.

METAR: SBSC 241900Z 17010KT 9999 SCT030 FEW031TCU 30/22 Q1014

Time: 17:10 (20:10 UTC)

Forecast

The report was made 5 hours and 10 minutes ago, at 15:00 UTC
Forecast valid from 24 at 18 UTC to 25 at 06 UTC
Wind 7 kt from the South/Southeast
Visibility 10 km or more
Scattered clouds at a height of 3500 ft
Becoming
from 24 at 22 UTC to 24 at 24 UTC
Wind 5 kt from the North/Northwest
Few clouds at a height of 2000 ft

TAF: SBSC 241500Z 2418/2506 15007KT 9999 SCT035 TX33/2418Z TN24/2506Z BECMG 2422/2424 34005KT FEW020 RMK PER

Weather observations and forecasts of more than 4000 airports (METAR and TAF reports).

The available stations are represented by yellow and red dots on the map.

Hover mouse over dot to see the name of the station.

Then click to see weather observations and forecasts.

To change the map : click on the green buttons with a black cross to zoom in, on the green button with a dash to zoom out, or on the green arrows for adjacent maps.


METAR-TAF: